• Join FlightAware (Why Join?)
  • Login
  • US Flag 
02:07PM EDT


 

Airport Tracker/Info


-or-


 

Live Flight TrackerFlight Track Log ✈ ASQ4577 ✈ 07-Jun-2013 ✈ KCLE - KALB

Flight Track Log - Related Links

Times and Time Zones

All times are in EDT time to prevent confusion due to time zone crossing. See the ASQ4577 flight status page for this flight to view local times or setup timezone preferences in your user account.

Time Position Orientation Groundspeed Altitude Reporting Facility
EDT Latitude Longitude Course Direction KTS MPH feet Rate Location/Type
07:46PM 41.4194 -81.8347 90° East 153 176 1,800  Level Cleveland Center
07:47PM 41.4383 -81.8183 33° Northeast 176 203 2,600 1,320 Climbing Cleveland Center
07:47PM 41.4742 -81.7858 34° Northeast 250 288 3,200 1,680 Climbing Cleveland Center
07:48PM 41.5308 -81.7481 27° Northeast 265 305 5,400 2,280 Climbing Cleveland Center
07:49PM 41.6579 -81.5922 37° Northeast  Level FlightAware Approximate
07:49PM 41.5939 -81.6992 30° Northeast 271 312 7,800  Level Cleveland Center
07:50PM 41.7446 -81.5055 37° Northeast  Level FlightAware Approximate
07:50PM 41.6569 -81.6364 37° Northeast 271 312 10,000  Level Cleveland Center
07:51PM 41.8313 -81.4187 37° Northeast  Level FlightAware Approximate
07:51PM 41.7181 -81.5622 42° Northeast 286 329 11,300  Level Cleveland Center
07:52PM 41.8500 -81.2778 90° East  Level FlightAware Approximate
07:52PM 41.7772 -81.4631 51° Northeast 321 369 12,200  Level Cleveland Center
07:53PM 41.8011 -81.3325 76° East 340 391 13,900 1,380 Climbing Cleveland Center
07:54PM 41.8247 -81.2128 75° East 354 407 15,000 1,140 Climbing Cleveland Center
07:55PM 41.8483 -81.0767 77° East 367 422 16,200 1,140 Climbing Cleveland Center
07:56PM 41.8761 -80.9344 75° East 379 436 17,300 1,020 Climbing Cleveland Center
07:57PM 41.8994 -80.7953 77° East 379 436 18,300 1,020 Climbing Cleveland Center
07:58PM 41.9267 -80.6500 76° East 391 450 19,400 1,080 Climbing Cleveland Center
07:59PM 41.9536 -80.4994 76° East 396 456 20,500 1,020 Climbing Cleveland Center
08:00PM 41.9825 -80.3317 77° East 407 468 21,500 1,020 Climbing Cleveland Center
08:01PM 42.0092 -80.1781 77° East 421 484 22,600 1,020 Climbing Cleveland Center
08:02PM 42.0358 -80.0211 77° East 421 484 23,600 960 Climbing Cleveland Center
08:03PM 42.0619 -79.8839 76° East 416 479 24,600 1,080 Climbing Cleveland Center
08:04PM 42.0881 -79.7242 78° East 416 479 25,800 1,200 Climbing Cleveland Center
08:05PM 42.1139 -79.5728 77° East 421 484 27,000 1,200 Climbing Cleveland Center
08:06PM 42.1397 -79.4211 77° East 416 479 28,200 1,080 Climbing Cleveland Center
08:07PM 42.1650 -79.2667 77° East 416 479 29,200 1,020 Climbing Cleveland Center
08:08PM 42.1903 -79.1092 78° East 416 479 30,300 900 Climbing Cleveland Center
08:09PM 42.2089 -78.9517 81° East 416 479 31,000 300 Climbing Cleveland Center
08:10PM 42.2356 -78.7686 79° East 421 484 31,000  Level Cleveland Center
08:11PM 42.2575 -78.5942 80° East 452 520 31,000  Level Cleveland Center
08:12PM 42.2794 -78.4167 80° East 470 541 31,000  Level Cleveland Center
08:13PM 42.3008 -78.2361 81° East 481 554 31,000  Level Cleveland Center
08:14PM 42.3219 -78.0528 81° East 486 559 31,000  Level Cleveland Center
08:15PM 42.3450 -77.8722 80° East 486 559 31,000 -480 Level Cleveland Center
08:16PM 42.3636 -77.6914 82° East 486 559 30,100 -960 Descending Cleveland Center
08:17PM 42.3842 -77.5275 80° East 486 559 29,100 -360 Descending Cleveland Center
08:19PM 42.4289 -77.1186 81° East 497 572 29,000 -60 Descending Boston Center
08:20PM 42.4508 -76.9375 81° East 502 578 29,000  Level Boston Center
08:21PM 42.4706 -76.7528 82° East 497 572 29,000  Level Boston Center
08:22PM 42.4900 -76.5656 82° East 497 572 29,000  Level Boston Center
08:23PM 42.5092 -76.3836 82° East 497 572 29,000 -600 Level Boston Center
08:24PM 42.5286 -76.1792 83° East 497 572 27,900 -1,440 Descending Boston Center
08:25PM 42.5511 -75.9972 80° East 497 572 26,200 -1,740 Descending Boston Center
08:26PM 42.5672 -75.8092 83° East 503 579 24,500 -1,800 Descending Boston Center
08:27PM 42.5847 -75.6325 82° East 487 560 22,700 -1,740 Descending Boston Center
08:28PM 42.6081 -75.4644 79° East 466 536 21,100 -1,740 Descending Boston Center
08:29PM 42.6622 -75.3089 65° Northeast 444 511 19,300 -1,860 Descending Boston Center
08:30PM 42.7139 -75.1586 65° Northeast 444 511 17,400 -1,800 Descending Boston Center
08:31PM 42.7611 -75.0136 66° East 433 498 15,700 -1,860 Descending Boston Center
08:32PM 42.8014 -74.8881 66° East 406 467 13,700 -1,980 Descending Boston Center
08:33PM 42.8306 -74.7928 67° East 370 426 12,500 -1,740 Descending Boston Center
08:33PM 42.8417 -74.7536 69° East 388 447 12,000 -1,260 Descending Boston Center
08:34PM 42.8794 -74.6303 67° East 371 427 11,000 -540 Descending Boston Center
08:35PM 42.9192 -74.5097 66° East 352 405 11,000 -540 Level Boston Center
08:36PM 42.9253 -74.3994 86° East 294 338 10,000 -1,380 Descending Boston Center
08:37PM 42.8747 -74.3072 127° Southeast 269 310 8,300 -1,740 Descending Boston Center
08:38PM 42.8303 -74.2350 130° Southeast 261 300 6,500 -1,740 Descending Boston Center
08:39PM 42.7833 -74.1600 130° Southeast 254 292 4,700 -1,440 Descending Boston Center
08:40PM 42.7386 -74.0939 133° Southeast 239 275 3,600 -600 Descending Boston Center
08:41PM 42.6958 -74.0219 129° Southeast 235 270 3,500 -60 Descending Boston Center
08:42PM 42.6528 -73.9589 133° Southeast 230 265 3,500 -360 Level Boston Center
08:43PM 42.6142 -73.8986 131° Southeast 202 232 2,800 -540 Descending Boston Center
08:44PM 42.5794 -73.8414 129° Southeast 196 226 2,500 -180 Descending Boston Center
08:45PM 42.6153 -73.8056 36° Northeast 197 227 2,500 -420 Level Boston Center
08:46PM 42.6694 -73.8039 North 189 217 1,700 10,620 Descending Boston Center
08:47PM 42.6392 -73.7103 114° Southeast 134 154 24,000 21,900 Climbing Boston Center